Time;durP1;ratioP1;P1;durP2;ratioP2;P2;SDS_P1;SDS_P2;PMS_P1;PMS_P2;Temp;Humidity;BMP_temperature;BMP_pressure;BME280_temperature;BME280_humidity;BME280_pressure;Samples;Min_cycle;Max_cycle;Signal;HPM_P1;HPM_P2
2023/08/12 00:00:58;;;;;;;44.78;30.10;;;;;;;;;;5077799;28;20411;-59
2023/08/12 00:03:25;;;;;;;42.58;29.42;;;;;;;;;;5079201;28;20422;-59
2023/08/12 00:05:53;;;;;;;40.42;28.33;;;;;;;;;;5077748;28;20418;-60
2023/08/12 00:08:20;;;;;;;48.28;31.77;;;;;;;;;;5081914;28;20459;-60
2023/08/12 00:10:47;;;;;;;52.35;31.42;;;;;;;;;;5074650;28;20563;-60
2023/08/12 00:13:17;;;;;;;45.10;30.35;;;;;;;;;;5080890;28;20410;-60
2023/08/12 00:15:44;;;;;;;46.13;30.40;;;;;;;;;;5077469;28;20496;-60
2023/08/12 00:18:12;;;;;;;57.53;32.63;;;;;;;;;;5080541;28;20417;-59
2023/08/12 00:20:39;;;;;;;56.88;31.65;;;;;;;;;;5074416;28;20401;-59
2023/08/12 00:23:06;;;;;;;44.58;30.73;;;;;;;;;;5078437;28;20429;-59
2023/08/12 00:25:33;;;;;;;44.75;28.15;;;;;;;;;;5075248;28;20429;-59
2023/08/12 00:28:00;;;;;;;42.15;28.10;;;;;;;;;;5079727;28;20412;-59
2023/08/12 00:30:27;;;;;;;40.03;26.50;;;;;;;;;;5078331;28;20421;-59
2023/08/12 00:32:54;;;;;;;41.38;26.77;;;;;;;;;;5077073;28;20407;-59
2023/08/12 00:35:23;;;;;;;35.75;25.88;;;;;;;;;;5080595;28;20406;-59
2023/08/12 00:37:50;;;;;;;44.53;26.83;;;;;;;;;;5078124;28;20818;-59
2023/08/12 00:40:17;;;;;;;36.78;25.95;;;;;;;;;;5077523;28;20417;-60
2023/08/12 00:42:44;;;;;;;37.73;26.03;;;;;;;;;;5075645;28;20550;-59
2023/08/12 00:45:13;;;;;;;39.78;27.73;;;;;;;;;;5079197;28;20412;-59
2023/08/12 00:47:40;;;;;;;43.97;28.85;;;;;;;;;;5081225;28;20423;-60
2023/08/12 00:50:08;;;;;;;41.35;27.38;;;;;;;;;;5077914;28;20434;-59
2023/08/12 00:52:37;;;;;;;41.92;27.70;;;;;;;;;;5082110;28;20473;-60
2023/08/12 00:55:04;;;;;;;48.05;31.30;;;;;;;;;;5082021;28;20465;-59
2023/08/12 00:57:31;;;;;;;43.70;29.00;;;;;;;;;;5082188;28;20419;-59
2023/08/12 00:59:58;;;;;;;49.25;29.30;;;;;;;;;;5080620;28;20418;-59
2023/08/12 01:02:25;;;;;;;46.72;29.35;;;;;;;;;;5081910;28;20419;-59
2023/08/12 01:04:52;;;;;;;46.08;29.08;;;;;;;;;;5081478;28;20423;-59
2023/08/12 01:07:20;;;;;;;49.00;30.15;;;;;;;;;;5080546;28;20412;-59
2023/08/12 01:09:48;;;;;;;47.92;31.15;;;;;;;;;;5080901;28;20473;-59
2023/08/12 01:12:20;;;;;;;51.25;32.22;;;;;;;;;;5082245;28;20976;-60
2023/08/12 01:14:47;;;;;;;54.58;33.67;;;;;;;;;;5079402;28;20489;-60
2023/08/12 01:17:16;;;;;;;59.05;36.15;;;;;;;;;;5078634;28;20472;-59
2023/08/12 01:19:44;;;;;;;67.32;38.25;;;;;;;;;;5082252;28;20422;-59
2023/08/12 01:22:12;;;;;;;58.53;36.05;;;;;;;;;;5081610;28;20908;-59
2023/08/12 01:24:41;;;;;;;57.90;35.03;;;;;;;;;;5082622;28;20499;-59
2023/08/12 01:27:09;;;;;;;60.35;36.15;;;;;;;;;;5085143;28;21147;-59
2023/08/12 01:29:36;;;;;;;62.65;35.80;;;;;;;;;;5081913;28;20903;-59
2023/08/12 01:32:09;;;;;;;61.10;37.17;;;;;;;;;;5076566;28;20457;-59
2023/08/12 01:34:41;;;;;;;64.43;36.70;;;;;;;;;;5082163;28;20445;-60
2023/08/12 01:37:10;;;;;;;66.55;38.35;;;;;;;;;;5085133;28;20410;-59
2023/08/12 01:39:38;;;;;;;72.20;39.33;;;;;;;;;;5079694;28;20551;-59
2023/08/12 01:42:07;;;;;;;77.93;40.83;;;;;;;;;;5080826;28;20460;-60
2023/08/12 01:44:34;;;;;;;66.50;39.03;;;;;;;;;;5082544;28;20436;-60
2023/08/12 01:47:01;;;;;;;67.78;37.60;;;;;;;;;;5077198;28;20418;-60
2023/08/12 01:49:28;;;;;;;85.18;42.95;;;;;;;;;;5082991;28;20791;-60
2023/08/12 01:51:55;;;;;;;76.90;41.47;;;;;;;;;;5080413;28;20411;-59
2023/08/12 01:54:22;;;;;;;80.88;41.42;;;;;;;;;;5078663;28;20418;-60
2023/08/12 01:56:49;;;;;;;79.47;41.70;;;;;;;;;;5081953;28;20957;-59
2023/08/12 01:59:17;;;;;;;76.88;42.35;;;;;;;;;;5082519;28;20487;-60
2023/08/12 02:01:44;;;;;;;73.45;40.28;;;;;;;;;;5079746;28;20405;-59
2023/08/12 02:04:11;;;;;;;70.45;39.63;;;;;;;;;;5083456;28;20426;-60
2023/08/12 02:06:38;;;;;;;66.20;37.25;;;;;;;;;;5080577;28;20868;-60
2023/08/12 02:09:06;;;;;;;64.85;37.30;;;;;;;;;;5083366;28;20974;-59
2023/08/12 02:11:33;;;;;;;65.10;37.07;;;;;;;;;;5082353;28;20417;-61
2023/08/12 02:14:00;;;;;;;69.95;38.47;;;;;;;;;;5081890;28;20404;-60
2023/08/12 02:16:28;;;;;;;75.15;39.05;;;;;;;;;;5082296;28;20406;-61
2023/08/12 02:18:55;;;;;;;76.80;39.03;;;;;;;;;;5077603;28;20416;-61
2023/08/12 02:21:22;;;;;;;70.25;39.50;;;;;;;;;;5083704;28;20409;-61
2023/08/12 02:23:49;;;;;;;79.57;42.08;;;;;;;;;;5080494;28;20913;-60
2023/08/12 02:26:17;;;;;;;76.93;41.95;;;;;;;;;;5082612;28;20411;-61
2023/08/12 02:28:44;;;;;;;82.83;43.90;;;;;;;;;;5078364;28;20416;-60
2023/08/12 02:31:11;;;;;;;73.68;41.75;;;;;;;;;;5076931;28;20411;-61
2023/08/12 02:33:39;;;;;;;70.72;39.67;;;;;;;;;;5081780;28;20433;-62
2023/08/12 02:36:06;;;;;;;68.80;38.85;;;;;;;;;;5079282;28;20477;-60
2023/08/12 02:38:33;;;;;;;57.10;35.42;;;;;;;;;;5083486;28;20465;-60
2023/08/12 02:41:00;;;;;;;60.10;36.40;;;;;;;;;;5080237;28;20955;-61
2023/08/12 02:43:27;;;;;;;58.13;36.97;;;;;;;;;;5078598;28;20473;-60
2023/08/12 02:45:54;;;;;;;53.42;34.70;;;;;;;;;;5081420;28;20408;-58
2023/08/12 02:48:21;;;;;;;53.90;33.83;;;;;;;;;;5075865;28;20480;-60
2023/08/12 02:50:49;;;;;;;56.67;35.15;;;;;;;;;;5082484;28;20408;-60
2023/08/12 02:53:17;;;;;;;51.40;32.45;;;;;;;;;;5079183;28;20442;-60
2023/08/12 02:55:44;;;;;;;47.03;30.88;;;;;;;;;;5080874;28;20418;-60
2023/08/12 02:58:11;;;;;;;45.53;30.55;;;;;;;;;;5077856;28;20416;-60
2023/08/12 03:00:38;;;;;;;43.08;30.40;;;;;;;;;;5081407;28;20406;-60
2023/08/12 03:03:05;;;;;;;46.67;30.25;;;;;;;;;;5077567;28;20427;-60
2023/08/12 03:05:32;;;;;;;47.22;30.42;;;;;;;;;;5086917;28;20398;-60
2023/08/12 03:08:03;;;;;;;48.30;31.70;;;;;;;;;;5076035;28;20460;-60
2023/08/12 03:10:30;;;;;;;50.95;31.85;;;;;;;;;;5081125;28;20436;-60
2023/08/12 03:12:57;;;;;;;47.90;32.13;;;;;;;;;;5078220;28;20459;-60
2023/08/12 03:15:24;;;;;;;55.45;33.13;;;;;;;;;;5083933;28;20410;-60
2023/08/12 03:17:52;;;;;;;56.00;33.90;;;;;;;;;;5082202;28;20410;-61
2023/08/12 03:20:19;;;;;;;55.63;35.30;;;;;;;;;;5080936;28;20447;-60
2023/08/12 03:22:46;;;;;;;59.08;35.45;;;;;;;;;;5078294;28;20414;-60
2023/08/12 03:25:15;;;;;;;54.83;34.67;;;;;;;;;;5080073;28;20425;-60
2023/08/12 03:27:42;;;;;;;59.10;36.00;;;;;;;;;;5081094;28;20428;-60
2023/08/12 03:30:10;;;;;;;59.22;35.08;;;;;;;;;;5085814;28;20896;-61
2023/08/12 03:32:37;;;;;;;57.50;34.00;;;;;;;;;;5079764;28;20440;-60
2023/08/12 03:35:04;;;;;;;52.42;34.20;;;;;;;;;;5079225;28;20416;-60
2023/08/12 03:37:31;;;;;;;54.75;33.72;;;;;;;;;;5077357;28;20495;-61
2023/08/12 03:39:58;;;;;;;52.85;32.60;;;;;;;;;;5079358;28;20434;-61
2023/08/12 03:42:26;;;;;;;49.97;31.90;;;;;;;;;;5077553;28;20419;-59
2023/08/12 03:44:53;;;;;;;47.40;31.85;;;;;;;;;;5083577;28;20422;-61
2023/08/12 03:47:23;;;;;;;48.20;31.48;;;;;;;;;;5080941;28;20411;-60
2023/08/12 03:49:50;;;;;;;50.38;32.47;;;;;;;;;;5077435;28;20423;-60
2023/08/12 03:52:17;;;;;;;56.33;32.60;;;19.50;99.90;;;;;;5079818;28;20496;-60
2023/08/12 03:54:43;;;;;;;47.50;32.90;;;19.50;99.90;;;;;;5079175;28;20988;-60
2023/08/12 03:57:10;;;;;;;49.33;33.53;;;19.50;99.90;;;;;;5080153;28;20763;-60
2023/08/12 03:59:38;;;;;;;50.22;33.40;;;19.40;99.90;;;;;;5080083;28;20459;-60
2023/08/12 04:02:05;;;;;;;49.88;33.08;;;19.50;99.90;;;;;;5078096;28;20465;-60
2023/08/12 04:04:32;;;;;;;51.33;32.20;;;19.70;99.90;;;;;;5080687;28;20426;-60
2023/08/12 04:06:59;;;;;;;54.80;33.33;;;;;;;;;;5082515;28;20414;-61
2023/08/12 04:09:26;;;;;;;51.15;32.75;;;19.70;99.90;;;;;;5079435;28;20419;-62
2023/08/12 04:11:52;;;;;;;42.38;29.13;;;19.60;99.90;;;;;;5080207;28;20406;-60
2023/08/12 04:14:19;;;;;;;48.13;31.00;;;19.70;99.90;;;;;;5081434;28;20402;-61
2023/08/12 04:16:47;;;;;;;47.03;31.95;;;20.20;99.90;;;;;;5077856;28;20410;-61
2023/08/12 04:19:14;;;;;;;47.25;31.52;;;19.80;99.90;;;;;;5081372;28;20410;-60
2023/08/12 04:21:40;;;;;;;47.50;30.95;;;19.90;99.90;;;;;;5080420;28;20436;-61
2023/08/12 04:24:08;;;;;;;44.13;29.80;;;19.80;99.90;;;;;;5084031;28;20418;-61
2023/08/12 04:26:35;;;;;;;40.88;27.52;;;19.90;99.90;;;;;;5086615;28;20900;-61
2023/08/12 04:29:02;;;;;;;41.17;29.27;;;19.90;99.90;;;;;;5081721;28;20457;-61
2023/08/12 04:31:28;;;;;;;42.63;29.73;;;19.90;99.90;;;;;;5086858;28;20413;-61
2023/08/12 04:33:56;;;;;;;37.70;27.90;;;19.60;99.90;;;;;;5079823;28;20400;-61
2023/08/12 04:36:23;;;;;;;38.88;27.23;;;19.90;99.90;;;;;;5085554;28;20945;-61
2023/08/12 04:38:49;;;;;;;42.13;27.52;;;20.70;99.90;;;;;;5082321;28;20419;-61
2023/08/12 04:41:16;;;;;;;36.15;26.60;;;20.40;99.90;;;;;;5083371;28;20473;-61
2023/08/12 04:43:43;;;;;;;38.70;26.65;;;20.10;99.90;;;;;;5082363;28;20411;-61
2023/08/12 04:46:10;;;;;;;38.80;27.45;;;;;;;;;;5080208;28;20824;-61
2023/08/12 04:48:37;;;;;;;33.93;25.77;;;;;;;;;;5086698;28;20419;-61
2023/08/12 04:51:05;;;;;;;37.08;26.27;;;;;;;;;;5082614;28;20437;-61
2023/08/12 04:53:32;;;;;;;33.87;25.63;;;;;;;;;;5081835;28;20763;-60
2023/08/12 04:55:59;;;;;;;35.45;25.08;;;;;;;;;;5081631;28;20404;-60
2023/08/12 04:58:26;;;;;;;33.53;25.23;;;;;;;;;;5082587;28;20956;-61
2023/08/12 05:00:53;;;;;;;33.83;25.30;;;;;;;;;;5085879;28;20445;-61
2023/08/12 05:03:20;;;;;;;36.47;25.98;;;;;;;;;;5082506;28;20457;-61
2023/08/12 05:05:50;;;;;;;35.83;25.75;;;;;;;;;;5083372;28;20449;-61
2023/08/12 05:08:18;;;;;;;32.80;25.77;;;;;;;;;;5085364;28;20407;-61
2023/08/12 05:10:45;;;;;;;31.88;23.88;;;;;;;;;;5080754;28;20476;-61
2023/08/12 05:13:12;;;;;;;31.58;23.80;;;;;;;;;;5082244;28;20415;-61
2023/08/12 05:15:39;;;;;;;33.08;23.15;;;20.10;99.90;;;;;;5084392;28;20455;-61
2023/08/12 05:18:06;;;;;;;30.38;23.45;;;19.60;99.90;;;;;;5079218;28;21035;-61
2023/08/12 05:20:33;;;;;;;29.33;22.40;;;19.60;99.90;;;;;;5083241;28;20406;-61
2023/08/12 05:23:00;;;;;;;29.35;23.27;;;;;;;;;;5081356;28;20459;-61
2023/08/12 05:25:29;;;;;;;30.48;22.80;;;;;;;;;;5082521;28;20822;-60
2023/08/12 05:27:55;;;;;;;31.25;22.10;;;20.10;99.90;;;;;;5081479;28;20517;-61
2023/08/12 05:30:22;;;;;;;28.03;20.90;;;19.60;99.90;;;;;;5084162;28;20414;-61
2023/08/12 05:32:49;;;;;;;28.92;21.52;;;20.20;99.90;;;;;;5074690;28;20455;-61
2023/08/12 05:35:16;;;;;;;29.38;21.63;;;20.90;99.90;;;;;;5078132;28;20420;-61
2023/08/12 05:37:42;;;;;;;26.67;20.52;;;19.70;99.90;;;;;;5085543;28;20406;-61
2023/08/12 05:40:10;;;;;;;27.02;19.83;;;19.70;99.90;;;;;;5083138;28;20412;-61
2023/08/12 05:42:38;;;;;;;27.47;20.47;;;20.00;99.90;;;;;;5089716;28;20406;-61
2023/08/12 05:45:06;;;;;;;29.27;19.85;;;20.70;99.90;;;;;;5082014;28;20423;-61
2023/08/12 05:47:33;;;;;;;22.50;17.63;;;;;;;;;;5079575;28;20886;-60
2023/08/12 05:49:59;;;;;;;21.30;16.70;;;20.10;99.90;;;;;;5082076;28;20985;-61
2023/08/12 05:52:26;;;;;;;20.87;17.00;;;21.20;99.90;;;;;;5083348;28;20485;-61
2023/08/12 05:54:53;;;;;;;21.33;15.52;;;19.90;99.90;;;;;;5081397;28;20862;-61
2023/08/12 05:57:19;;;;;;;19.83;16.50;;;19.90;99.90;;;;;;5081695;28;20412;-60
2023/08/12 05:59:47;;;;;;;20.60;16.23;;;19.90;99.90;;;;;;5081977;28;20412;-60
2023/08/12 06:02:14;;;;;;;19.67;15.50;;;19.50;99.90;;;;;;5080883;28;20874;-61
2023/08/12 06:04:41;;;;;;;19.23;14.40;;;20.10;99.90;;;;;;5080793;28;20791;-61
2023/08/12 06:07:07;;;;;;;19.15;14.90;;;19.50;99.90;;;;;;5083085;28;20416;-61
2023/08/12 06:09:34;;;;;;;19.93;14.93;;;20.00;99.90;;;;;;5081795;28;20880;-61
2023/08/12 06:12:01;;;;;;;18.27;14.07;;;19.80;99.90;;;;;;5080728;28;20492;-61
2023/08/12 06:14:28;;;;;;;19.75;14.43;;;;;;;;;;5084993;28;20410;-61
2023/08/12 06:16:56;;;;;;;18.42;13.50;;;;;;;;;;5082186;28;20934;-61
2023/08/12 06:19:23;;;;;;;15.82;12.18;;;;;;;;;;5087755;28;20417;-60
2023/08/12 06:21:50;;;;;;;13.65;11.32;;;;;;;;;;5079872;28;20440;-60
2023/08/12 06:24:17;;;;;;;16.15;12.50;;;;;;;;;;5081028;28;20826;-61
2023/08/12 06:26:44;;;;;;;16.40;12.02;;;;;;;;;;5077838;28;20422;-60
2023/08/12 06:29:11;;;;;;;16.97;12.40;;;;;;;;;;5082042;28;20751;-60
2023/08/12 06:31:38;;;;;;;14.18;11.60;;;;;;;;;;5080995;28;20410;-60
2023/08/12 06:34:07;;;;;;;15.00;11.90;;;;;;;;;;5077609;28;20415;-61
2023/08/12 06:36:34;;;;;;;17.00;12.60;;;;;;;;;;5083614;28;20419;-61
2023/08/12 06:39:01;;;;;;;14.95;12.10;;;;;;;;;;5077981;28;20412;-61
2023/08/12 06:41:28;;;;;;;15.30;12.10;;;;;;;;;;5079646;28;20463;-61
2023/08/12 06:43:55;;;;;;;19.02;11.75;;;;;;;;;;5081155;28;20411;-60
2023/08/12 06:46:22;;;;;;;11.77;9.93;;;;;;;;;;5080767;28;20435;-61
2023/08/12 06:48:49;;;;;;;12.17;9.83;;;;;;;;;;5080134;28;20415;-62
2023/08/12 06:51:17;;;;;;;14.25;9.40;;;;;;;;;;5087833;28;20415;-61
2023/08/12 06:53:44;;;;;;;14.53;10.07;;;;;;;;;;5085207;28;20503;-61
2023/08/12 06:56:11;;;;;;;14.82;10.15;;;;;;;;;;5080337;28;20444;-61
2023/08/12 06:58:38;;;;;;;11.25;9.23;;;;;;;;;;5080322;28;20408;-61
2023/08/12 07:01:05;;;;;;;11.98;8.88;;;;;;;;;;5079826;28;20407;-61
2023/08/12 07:03:32;;;;;;;13.57;9.27;;;;;;;;;;5080475;28;20890;-61
2023/08/12 07:05:59;;;;;;;11.07;8.87;;;;;;;;;;5080744;28;21386;-60
2023/08/12 07:08:28;;;;;;;11.07;8.80;;;;;;;;;;5081666;28;20411;-61
2023/08/12 07:10:55;;;;;;;11.53;9.00;;;;;;;;;;5082827;28;20415;-61
2023/08/12 07:13:22;;;;;;;11.95;10.20;;;;;;;;;;5078385;28;20472;-61
2023/08/12 07:15:49;;;;;;;10.68;9.15;;;;;;;;;;5081163;28;20410;-61
2023/08/12 07:18:16;;;;;;;10.75;8.68;;;;;;;;;;5082314;28;20469;-62
2023/08/12 07:20:43;;;;;;;11.88;8.98;;;;;;;;;;5086098;28;20497;-64
2023/08/12 07:23:10;;;;;;;10.77;8.15;;;;;;;;;;5085351;28;20463;-64
2023/08/12 07:25:39;;;;;;;12.80;8.23;;;;;;;;;;5078304;28;20497;-64
2023/08/12 07:28:06;;;;;;;10.18;8.50;;;;;;;;;;5077133;28;20453;-63
2023/08/12 07:30:35;;;;;;;10.20;8.00;;;;;;;;;;5076808;28;20499;-64
2023/08/12 07:33:02;;;;;;;9.40;7.60;;;;;;;;;;5072529;28;20462;-64
2023/08/12 07:35:29;;;;;;;8.77;7.85;;;;;;;;;;5082394;28;20819;-64
2023/08/12 07:37:56;;;;;;;10.23;7.47;;;;;;;;;;5078589;28;20406;-63
2023/08/12 07:40:23;;;;;;;9.38;7.28;;;;;;;;;;5080494;28;20410;-63
2023/08/12 07:42:51;;;;;;;7.90;7.10;;;;;;;;;;5077004;28;20419;-63
2023/08/12 07:45:18;;;;;;;8.70;7.80;;;;;;;;;;5081111;28;20431;-63
2023/08/12 07:47:45;;;;;;;8.05;6.10;;;;;;;;;;5084307;28;20931;-63
2023/08/12 07:50:12;;;;;;;9.95;5.90;;;;;;;;;;5086237;28;20414;-62
2023/08/12 07:52:39;;;;;;;6.33;5.73;;;;;;;;;;5083017;28;20490;-62
2023/08/12 07:55:07;;;;;;;7.88;6.15;;;;;;;;;;5087156;28;20421;-63
2023/08/12 07:57:34;;;;;;;6.57;5.95;;;;;;;;;;5089243;28;20503;-63
2023/08/12 08:00:02;;;;;;;6.60;5.85;;;;;;;;;;5081799;28;20409;-62
2023/08/12 08:02:29;;;;;;;6.25;5.60;;;;;;;;;;5081543;28;20755;-64
2023/08/12 08:04:57;;;;;;;6.25;5.00;;;;;;;;;;5082664;28;20437;-64
2023/08/12 08:07:24;;;;;;;6.75;4.97;;;;;;;;;;5083142;28;20422;-64
2023/08/12 08:09:52;;;;;;;6.90;4.93;;;;;;;;;;5084228;28;21127;-63
2023/08/12 08:12:19;;;;;;;5.68;4.57;;;;;;;;;;5083673;28;20415;-63
2023/08/12 08:14:46;;;;;;;6.57;5.10;;;;;;;;;;5085016;28;20410;-63
2023/08/12 08:17:14;;;;;;;8.07;5.13;;;;;;;;;;5082358;28;20412;-63
2023/08/12 08:19:41;;;;;;;5.82;5.07;;;;;;;;;;5087055;28;20461;-63
2023/08/12 08:22:09;;;;;;;6.38;5.75;;;;;;;;;;5085402;28;20411;-62
2023/08/12 08:24:36;;;;;;;5.97;5.30;;;;;;;;;;5085120;28;20410;-64
2023/08/12 08:27:04;;;;;;;6.35;5.45;;;;;;;;;;5081382;28;20498;-62
2023/08/12 08:29:31;;;;;;;6.68;5.65;;;;;;;;;;5084949;28;20413;-64
2023/08/12 08:31:58;;;;;;;6.20;5.60;;;;;;;;;;5084854;28;20401;-62
2023/08/12 08:34:26;;;;;;;7.20;6.50;;;;;;;;;;5085674;28;20888;-63
2023/08/12 08:36:54;;;;;;;7.78;7.00;;;;;;;;;;5085148;28;20433;-63
2023/08/12 08:39:21;;;;;;;8.60;7.20;;;;;;;;;;5075971;28;20817;-63
2023/08/12 08:41:49;;;;;;;9.05;7.75;;;;;;;;;;5077713;28;20517;-62
2023/08/12 08:44:16;;;;;;;8.52;7.72;;;;;;;;;;5080647;28;20874;-62
2023/08/12 08:46:44;;;;;;;10.40;8.20;;;;;;;;;;5083716;28;20471;-62
2023/08/12 08:49:12;;;;;;;9.77;8.77;;;;;;;;;;5080431;28;20948;-62
2023/08/12 08:51:40;;;;;;;9.60;8.65;;;;;;;;;;5083872;28;20406;-66
2023/08/12 08:54:07;;;;;;;9.65;8.65;;;;;;;;;;5077241;28;20500;-66
2023/08/12 08:56:34;;;;;;;13.38;12.00;;;;;;;;;;5089446;28;20417;-64
2023/08/12 08:59:01;;;;;;;9.63;8.73;;;;;;;;;;5078904;28;20414;-64
2023/08/12 09:01:30;;;;;;;9.68;8.25;;;;;;;;;;5083258;28;20467;-66
2023/08/12 09:03:58;;;;;;;10.98;9.13;;;;;;;;;;5080057;28;20480;-66
2023/08/12 09:06:27;;;;;;;10.17;9.17;;;;;;;;;;5083007;28;20479;-63
2023/08/12 09:08:55;;;;;;;10.90;9.03;;;;;;;;;;5083174;28;20416;-63
2023/08/12 09:11:22;;;;;;;10.60;9.43;;;;;;;;;;5084626;28;20414;-63
2023/08/12 09:13:49;;;;;;;9.68;8.68;;;;;;;;;;5085711;28;20453;-62
2023/08/12 09:16:16;;;;;;;9.20;8.20;;;;;;;;;;5082237;28;20412;-62
2023/08/12 09:18:44;;;;;;;9.00;7.85;;;;;;;;;;5077722;28;20423;-63
2023/08/12 09:21:11;;;;;;;8.27;7.47;;;;;;;;;;5084494;28;20419;-62
2023/08/12 09:23:39;;;;;;;8.57;7.68;;;;;;;;;;5083793;28;20908;-64
2023/08/12 09:26:15;;;;;;;7.03;6.32;;;;;;;;;;5093841;28;20422;-65
2023/08/12 09:28:42;;;;;;;7.72;6.85;;;;;;;;;;5087538;28;20498;-63
2023/08/12 09:31:09;;;;;;;7.20;6.50;;;;;;;;;;5078234;28;20553;-63
2023/08/12 09:33:41;;;;;;;7.10;6.40;;;;;;;;;;5081957;28;20411;-63
2023/08/12 09:36:08;;;;;;;7.72;6.70;;;;;;;;;;5081212;28;20416;-62
2023/08/12 09:38:35;;;;;;;7.18;6.10;;;;;;;;;;5081533;28;20411;-62
2023/08/12 09:41:02;;;;;;;6.13;5.63;;;;;;;;;;5082173;28;20430;-65
2023/08/12 09:43:31;;;;;;;5.90;5.18;;;;;;;;;;5082306;28;20411;-64
2023/08/12 09:45:58;;;;;;;4.75;4.25;;;;;;;;;;5082910;28;20763;-69
2023/08/12 09:48:27;;;;;;;4.97;4.47;;;;;;;;;;5079312;28;20490;-64
2023/08/12 09:50:54;;;;;;;6.40;4.55;;;;;;;;;;5080396;28;20457;-64
2023/08/12 09:53:23;;;;;;;4.33;3.93;;;;;;;;;;5085880;28;20507;-64
2023/08/12 09:55:53;;;;;;;5.47;4.20;;;;;;;;;;5082590;28;20405;-64
2023/08/12 09:58:22;;;;;;;4.35;3.85;;;;;;;;;;5085499;28;20415;-64
2023/08/12 10:00:51;;;;;;;3.93;3.37;;;;;;;;;;5086239;28;20415;-64
2023/08/12 10:03:19;;;;;;;3.30;3.00;;;;;;;;;;5087673;28;20415;-64
2023/08/12 10:05:46;;;;;;;5.72;4.30;;;;;;;;;;5080103;28;20433;-65
2023/08/12 10:08:16;;;;;;;5.82;2.90;;;;;;;;;;5081876;28;20498;-64
2023/08/12 10:10:43;;;;;;;3.55;2.33;;;;;;;;;;5084048;28;20414;-65
2023/08/12 10:13:11;;;;;;;3.00;2.22;;;;;;;;;;5081186;28;20418;-65
2023/08/12 10:15:38;;;;;;;3.75;2.28;;;;;;;;;;5078729;28;20411;-65
2023/08/12 10:18:07;;;;;;;3.40;2.25;;;;;;;;;;5077563;28;20421;-65
2023/08/12 10:20:37;;;;;;;2.58;2.10;;;;;;;;;;5082691;28;20745;-64
2023/08/12 10:23:04;;;;;;;2.33;2.00;;;;;;;;;;5079495;28;20495;-68
2023/08/12 10:25:33;;;;;;;2.70;2.05;;;;;;;;;;5079561;28;20416;-68
2023/08/12 10:28:00;;;;;;;3.80;2.30;;;;;;;;;;5093172;28;20402;-65
2023/08/12 10:30:29;;;;;;;3.10;1.83;;;;;;;;;;5092470;28;20440;-65
2023/08/12 10:32:56;;;;;;;3.40;1.95;;;;;;;;;;5083420;28;20415;-64
2023/08/12 10:35:25;;;;;;;3.78;2.00;;;;;;;;;;5080249;28;20418;-65
2023/08/12 10:37:53;;;;;;;4.80;1.80;;;;;;;;;;5082540;28;20426;-66
2023/08/12 10:40:23;;;;;;;3.05;1.90;;;;;;;;;;5076490;28;20518;-64
2023/08/12 10:42:51;;;;;;;2.13;1.73;;;;;;;;;;5078399;28;20423;-64
2023/08/12 10:45:19;;;;;;;1.88;1.60;;;;;;;;;;5078643;28;20425;-66
2023/08/12 10:47:50;;;;;;;1.98;1.40;;;;;;;;;;5084239;28;20961;-64
2023/08/12 10:50:20;;;;;;;5.17;1.80;;;;;;;;;;5086887;28;20418;-64
2023/08/12 10:52:48;;;;;;;2.33;1.50;;;;;;;;;;5080109;28;20473;-63
2023/08/12 10:55:19;;;;;;;2.58;1.40;;;;;;;;;;5085346;28;20417;-64
2023/08/12 10:57:46;;;;;;;2.80;1.80;;;;;;;;;;5066414;28;20893;-62
2023/08/12 11:00:15;;;;;;;2.30;1.30;;;;;;;;;;5079474;28;20798;-61
2023/08/12 11:02:45;;;;;;;2.40;1.40;;;;;;;;;;5079272;28;20861;-61
2023/08/12 11:05:13;;;;;;;2.38;1.45;;;;;;;;;;5081093;28;20408;-61
2023/08/12 11:07:40;;;;;;;1.50;1.30;;;;;;;;;;5076950;28;20955;-61
2023/08/12 11:10:13;;;;;;;2.25;1.33;;;;;;;;;;5076092;28;20410;-63
2023/08/12 11:12:40;;;;;;;3.42;1.60;;;;;;;;;;5084109;28;20449;-62
2023/08/12 11:15:08;;;;;;;1.70;1.40;;;;;;;;;;5078861;28;20462;-62
2023/08/12 11:17:36;;;;;;;3.05;1.65;;;;;;;;;;5083517;28;20441;-64
2023/08/12 11:20:05;;;;;;;2.20;2.00;;;;;;;;;;5084420;28;20421;-64
2023/08/12 11:22:32;;;;;;;3.00;2.00;;;;;;;;;;5085265;28;20411;-65
2023/08/12 11:24:59;;;;;;;3.85;2.10;;;;;;;;;;5083946;28;20781;-64
2023/08/12 11:27:27;;;;;;;4.07;2.20;;;;;;;;;;5071814;28;20425;-64
2023/08/12 11:29:54;;;;;;;3.47;1.98;;;;;;;;;;5074890;28;20552;-64
2023/08/12 11:32:22;;;;;;;2.65;2.00;;;;;;;;;;5077973;28;20446;-65
2023/08/12 11:34:49;;;;;;;3.15;1.92;;;;;;;;;;5077919;28;20420;-61
2023/08/12 11:37:16;;;;;;;2.05;1.60;;;;;;;;;;5079472;28;20418;-61
2023/08/12 11:39:43;;;;;;;3.38;1.52;;;;;;;;;;5081407;28;20466;-62
2023/08/12 11:42:10;;;;;;;2.17;1.20;;;;;;;;;;5066856;28;20763;-62
2023/08/12 11:44:38;;;;;;;1.88;1.30;;;;;;;;;;5079000;28;20402;-64
2023/08/12 11:47:05;;;;;;;1.17;0.90;;;;;;;;;;5075582;28;20428;-61
2023/08/12 11:49:32;;;;;;;3.72;1.10;;;;;;;;;;5078220;28;20413;-61
2023/08/12 11:51:59;;;;;;;1.48;1.10;;;;;;;;;;5075526;28;20419;-61
2023/08/12 11:54:27;;;;;;;1.10;1.00;;;;;;;;;;5080545;28;20500;-64
2023/08/12 11:56:55;;;;;;;1.25;1.00;;;;;;;;;;5077063;28;20460;-64
2023/08/12 11:59:23;;;;;;;1.40;0.90;;;;;;;;;;5072467;28;20751;-61
2023/08/12 12:01:51;;;;;;;1.33;0.70;;;;;;;;;;5071685;28;20410;-64
2023/08/12 12:04:20;;;;;;;1.00;0.90;;;;;;;;;;5073625;28;20415;-64
2023/08/12 12:06:47;;;;;;;1.70;1.13;;;;;;;;;;5072892;28;20427;-64
2023/08/12 12:09:14;;;;;;;1.25;1.02;;;;;;;;;;5073452;28;20485;-64
2023/08/12 12:11:42;;;;;;;1.35;1.10;;;;;;;;;;5073651;28;20469;-65
2023/08/12 12:14:10;;;;;;;1.30;1.10;;;;;;;;;;5073766;28;20468;-64
2023/08/12 12:16:41;;;;;;;1.40;1.30;;;;;;;;;;5074540;28;20491;-65
2023/08/12 12:19:15;;;;;;;3.55;1.20;;;;;;;;;;5073967;28;20463;-65
2023/08/12 12:21:42;;;;;;;1.63;1.17;;;;;;;;;;5073007;28;20863;-65
2023/08/12 12:24:09;;;;;;;3.63;1.08;;;;;;;;;;5065978;28;20432;-63
2023/08/12 12:26:36;;;;;;;1.85;1.30;;;;;;;;;;5079239;28;20427;-64
2023/08/12 12:29:06;;;;;;;1.60;1.10;;;;;;;;;;5081767;28;21212;-65
2023/08/12 12:31:34;;;;;;;2.10;1.10;;;;;;;;;;5068638;28;20498;-65
2023/08/12 12:34:01;;;;;;;1.50;1.40;;;;;;;;;;5074232;28;20911;-64
2023/08/12 12:36:29;;;;;;;1.90;1.20;;;;;;;;;;5076052;28;20415;-65
2023/08/12 12:38:56;;;;;;;1.63;1.35;;;;;;;;;;5080852;28;20413;-65
2023/08/12 12:41:23;;;;;;;1.83;1.10;;;;;;;;;;5069552;28;20458;-65
2023/08/12 12:43:50;;;;;;;1.83;1.20;;;;;;;;;;5083234;28;20455;-65
2023/08/12 12:46:18;;;;;;;3.90;1.38;;;;;;;;;;5077133;28;20412;-65
2023/08/12 12:48:45;;;;;;;2.47;1.40;;;;;;;;;;5076522;28;20416;-62
2023/08/12 12:51:12;;;;;;;2.10;1.00;;;;;;;;;;5080752;28;20421;-64
2023/08/12 12:53:41;;;;;;;1.35;1.25;;;;;;;;;;5078058;28;20414;-64
2023/08/12 12:56:08;;;;;;;3.92;1.33;;;;;;;;;;5077424;28;20415;-64
2023/08/12 12:58:35;;;;;;;2.72;1.20;;;;;;;;;;5088937;28;20409;-64
2023/08/12 13:01:02;;;;;;;2.75;1.80;;;;;;;;;;5077389;28;20430;-64
2023/08/12 13:03:30;;;;;;;4.10;2.00;;;;;;;;;;5071782;28;20468;-64
2023/08/12 13:05:57;;;;;;;3.70;2.63;;;;;;;;;;5079461;28;20460;-64
2023/08/12 13:08:25;;;;;;;3.30;2.80;;;;;;;;;;5072888;28;20421;-64
2023/08/12 13:10:53;;;;;;;5.17;2.60;;;;;;;;;;5075666;28;20456;-64
2023/08/12 13:13:20;;;;;;;3.63;3.10;;;;;;;;;;5083711;28;20488;-64
2023/08/12 13:15:47;;;;;;;4.90;3.38;;;;;;;;;;5078732;28;20419;-64
2023/08/12 13:18:14;;;;;;;4.75;3.80;;;;;;;;;;5074175;28;20404;-64
2023/08/12 13:20:41;;;;;;;5.15;4.50;;;;;;;;;;5070591;28;20447;-64
2023/08/12 13:23:08;;;;;;;4.57;4.17;;;;;;;;;;5077040;28;20435;-64
2023/08/12 13:25:35;;;;;;;5.35;4.47;;;;;;;;;;5084418;28;20910;-64
2023/08/12 13:28:04;;;;;;;4.90;4.50;;;;;;;;;;5074407;28;20427;-65
2023/08/12 13:30:31;;;;;;;5.43;4.93;;;;;;;;;;5077035;28;20436;-63
2023/08/12 13:32:59;;;;;;;5.63;4.70;;;;;;;;;;5078104;28;20832;-63
2023/08/12 13:35:26;;;;;;;4.90;4.43;;;;;;;;;;5074796;28;20417;-63
2023/08/12 13:37:53;;;;;;;5.60;5.10;;;;;;;;;;5067683;28;20461;-66
2023/08/12 13:40:20;;;;;;;5.30;4.80;;;;;;;;;;5080917;28;20407;-65
2023/08/12 13:42:47;;;;;;;5.90;5.40;;;;;;;;;;5077480;28;20502;-65
2023/08/12 13:45:16;;;;;;;6.40;5.80;;;;;;;;;;5076465;28;20450;-65
2023/08/12 13:47:43;;;;;;;6.50;5.80;;;;;;;;;;5066077;28;20497;-64
2023/08/12 13:50:10;;;;;;;8.10;7.00;;;;;;;;;;5082217;28;20457;-63
2023/08/12 13:52:37;;;;;;;7.78;6.97;;;;;;;;;;5074859;28;20479;-63
2023/08/12 13:55:04;;;;;;;9.02;7.88;;;;;;;;;;5077467;28;20880;-63
2023/08/12 13:57:31;;;;;;;10.90;9.80;;;;;;;;;;5077426;28;20421;-64
2023/08/12 13:59:59;;;;;;;13.70;11.73;;;;;;;;;;5083386;28;20578;-64
2023/08/12 14:02:27;;;;;;;15.25;13.70;;;;;;;;;;5086937;28;21005;-64
2023/08/12 14:04:54;;;;;;;17.10;14.75;;;;;;;;;;5081516;28;20409;-64
2023/08/12 14:07:21;;;;;;;17.45;15.73;;;;;;;;;;5075568;28;20455;-64
2023/08/12 14:09:49;;;;;;;18.15;16.17;;;;;;;;;;5078886;28;20436;-65
2023/08/12 14:12:16;;;;;;;17.90;16.00;;;;;;;;;;5071812;28;20461;-64
2023/08/12 14:14:43;;;;;;;18.53;15.87;;;;;;;;;;5072379;28;20884;-64